DWD Radarbild

   
[Quelle: ADDS]
METAR
EDLP 231020Z 08006KT CAVOK 20/12 Q1021 =
TAF
EDLP 230500Z 2306/2406 12004KT CAVOK BECMG 2307/2310 07010KT BECMG 2317/2320 09005KT =
   
   

Meine WettercamWettercam aus Bielefeld Senne - Blickrichtung Süd-Ostjede Min. ein neues Bild

   
Moon phase
Phase:
Zunehmend

Mondphase:
64%

Alter:
9 Tage

Entfernung:
231,200 Km

Zeit:
12:26:40

Datum:
23-05-2018

   
<<  Mai 2018  >>
 Mo  Di  Mi  Do  Fr  Sa  So 
   1  2  3  4  5  6
  7  8  910111213
14151617181920
21222324252627
28293031